Fazeley, United Kingdom
Current Conditions -  °F | °C
As of 2:20 PM on Friday 19 Dec 2014 (Local Time) from EGBB Reporting Station
Scattered Clouds Scattered Clouds  
Wind Chill: 40°   Ceiling: Unl
Heat Index: 46°   Visibility: 6mi
Dew Point: 34°   Wind: 15mph
Humidity: 62%   Direction: 270°W
Pressure: 29.97"   Gusts: NA
Location:  52.61°N, 1.7°W
Report Text: EGBB 191420Z 27013KT 9999 SCT040 08/01 Q1015
Loading
Personal Weather Stations






























Interactive Weather Map New forecast layout! Learn more

10-Day Weather Forecast

Advertisements
Track Severe Weather on mobile